Time;durP1;ratioP1;P1;durP2;ratioP2;P2;SDS_P1;SDS_P2;PMS_P1;PMS_P2;Temp;Humidity;BMP_temperature;BMP_pressure;BME280_temperature;BME280_humidity;BME280_pressure;Samples;Min_cycle;Max_cycle;Signal;HPM_P1;HPM_P2
2022/08/23 00:01:27;;;;;;;11.10;4.38;;;;;;;16.25;100.00;100337.81;4952963;28;20126;-67
2022/08/23 00:03:55;;;;;;;5.53;3.97;;;;;;;16.23;100.00;100337.06;4953084;28;20035;-67
2022/08/23 00:06:21;;;;;;;9.10;4.50;;;;;;;16.24;100.00;100337.91;4951663;28;20034;-67
2022/08/23 00:08:48;;;;;;;6.07;3.92;;;;;;;16.21;100.00;100336.34;4952733;28;20031;-66
2022/08/23 00:11:24;;;;;;;7.50;4.25;;;;;;;15.91;100.00;100285.59;4952637;28;20119;-67
2022/08/23 00:13:49;;;;;;;6.47;4.30;;;;;;;16.15;100.00;100328.00;4951010;28;20049;-67
2022/08/23 00:16:14;;;;;;;7.63;4.75;;;;;;;16.07;100.00;100319.75;4952014;28;20473;-67
2022/08/23 00:18:40;;;;;;;10.32;4.75;;;;;;;16.10;100.00;100330.97;4944061;28;20039;-67
2022/08/23 00:21:06;;;;;;;6.88;3.88;;;;;;;16.06;100.00;100331.31;4936565;28;20034;-69
2022/08/23 00:23:31;;;;;;;13.20;4.32;;;;;;;16.03;100.00;100340.34;4952480;28;20519;-68
2022/08/23 00:25:56;;;;;;;7.53;4.40;;;;;;;16.00;100.00;100335.25;4952657;29;20541;-69
2022/08/23 00:28:22;;;;;;;6.10;4.28;;;;;;;15.91;100.00;100320.03;4952860;28;20100;-69
2022/08/23 00:30:47;;;;;;;13.35;4.45;;;;;;;15.85;100.00;100326.63;4950320;28;20069;-68
2022/08/23 00:33:12;;;;;;;9.35;4.97;;;;;;;15.73;100.00;100324.88;4948127;28;20115;-68
2022/08/23 00:35:38;;;;;;;7.95;4.57;;;;;;;15.79;100.00;100326.22;4952276;28;20028;-68
2022/08/23 00:38:03;;;;;;;7.57;4.53;;;;;;;15.81;100.00;100330.47;4952178;28;20023;-68
2022/08/23 00:40:29;;;;;;;5.47;3.88;;;;;;;15.76;100.00;100318.50;4952573;28;20023;-68
2022/08/23 00:48:51;;;;;;;7.07;4.20;;;;;;;15.75;100.00;100322.09;4952192;28;20042;-69
2022/08/23 00:51:23;;;;;;;8.32;4.85;;;;;;;15.71;100.00;100324.16;4935009;28;20114;-68
2022/08/23 00:53:51;;;;;;;11.25;4.38;;;;;;;15.73;100.00;100329.31;4934301;28;20050;-68
2022/08/23 00:56:18;;;;;;;12.18;5.07;;;;;;;15.69;100.00;100322.56;4951835;28;20130;-68
2022/08/23 00:58:45;;;;;;;6.40;3.75;;;;;;;15.64;100.00;100319.41;4935216;28;20118;-68
2022/08/23 01:01:11;;;;;;;8.77;5.00;;;;;;;15.63;100.00;100323.00;4952325;28;20031;-68
2022/08/23 01:03:39;;;;;;;8.40;4.60;;;;;;;15.58;100.00;100318.03;4950599;28;20031;-68
2022/08/23 01:06:13;;;;;;;14.93;4.72;;;;;;;15.57;100.00;100316.34;5007866;28;20372;-68
2022/08/23 01:08:44;;;;;;;7.18;4.15;;;;;;;15.55;100.00;100320.03;4951682;29;20058;-68
2022/08/23 01:11:14;;;;;;;9.10;4.78;;;;;;;15.52;100.00;100328.22;4935600;28;20109;-68
2022/08/23 01:13:45;;;;;;;7.68;4.72;;;;;;;15.47;100.00;100332.97;4949096;28;20069;-68
2022/08/23 01:16:16;;;;;;;5.43;4.13;;;;;;;15.44;100.00;100335.84;4939542;28;20031;-68
2022/08/23 01:18:42;;;;;;;10.65;4.55;;;;;;;15.36;100.00;100325.78;4934145;28;20529;-68
2022/08/23 01:21:15;;;;;;;8.05;4.25;;;;;;;15.32;100.00;100326.97;4936377;28;20116;-68
2022/08/23 01:24:02;;;;;;;8.57;4.28;;;;;;;15.22;100.00;100321.47;4942902;28;20422;-68
2022/08/23 01:26:30;;;;;;;6.40;4.63;;;;;;;15.18;100.00;100325.28;4949298;28;20129;-68
2022/08/23 01:28:56;;;;;;;7.90;4.85;;;;;;;15.18;100.00;100325.28;4958430;28;20027;-68
2022/08/23 01:31:22;;;;;;;9.38;4.90;;;;;;;15.14;100.00;100318.50;4951708;29;20041;-68
2022/08/23 01:33:53;;;;;;;8.15;5.13;;;;;;;15.19;100.00;100331.44;4951352;29;20023;-68
2022/08/23 01:36:18;;;;;;;9.63;5.78;;;;;;;15.16;100.00;100334.28;4934268;28;20058;-68
2022/08/23 01:38:44;;;;;;;8.93;5.32;;;;;;;15.16;100.00;100331.66;4949247;28;20463;-68
2022/08/23 01:41:09;;;;;;;13.35;4.93;;;;;;;15.07;100.00;100322.53;4951205;28;20027;-68
2022/08/23 01:43:35;;;;;;;6.70;4.90;;;;;;;15.13;100.00;100332.72;4952306;28;20470;-69
2022/08/23 01:46:18;;;;;;;7.60;5.20;;;;;;;15.08;100.00;100329.53;4953517;28;20037;-68
2022/08/23 01:48:45;;;;;;;12.20;4.95;;;;;;;15.11;100.00;100334.59;4955536;28;20027;-68
2022/08/23 01:51:12;;;;;;;8.68;5.43;;;;;;;15.06;100.00;100330.59;4954661;28;20518;-68
2022/08/23 01:53:39;;;;;;;9.00;4.45;;;;;;;15.08;100.00;100336.63;4957098;28;20137;-68
2022/08/23 01:56:06;;;;;;;7.72;5.15;;;;;;;15.04;100.00;100335.97;4959160;28;20027;-68
2022/08/23 01:58:32;;;;;;;7.50;5.05;;;;;;;15.01;100.00;100341.50;4935451;29;20393;-68
2022/08/23 02:00:58;;;;;;;11.23;5.07;;;;;;;15.00;100.00;100345.13;4952963;28;21023;-69
2022/08/23 02:03:23;;;;;;;8.73;5.47;;;;;;;14.96;100.00;100337.47;4955001;28;20023;-68
2022/08/23 02:05:48;;;;;;;9.38;4.82;;;;;;;14.93;100.00;100341.19;4954191;28;20032;-68
2022/08/23 02:10:58;;;;;;;11.10;5.90;;;;;;;14.90;100.00;100340.56;4954865;28;20042;-68
2022/08/23 02:13:23;;;;;;;9.90;5.47;;;;;;;14.85;100.00;100343.50;4954512;28;20043;-68
2022/08/23 02:15:50;;;;;;;8.10;5.55;;;;;;;14.74;100.00;100327.53;4953583;28;20059;-68
2022/08/23 02:18:18;;;;;;;10.02;5.45;;;;;;;14.78;100.00;100337.78;4950985;28;20031;-68
2022/08/23 02:20:45;;;;;;;9.68;5.57;;;;;;;14.79;100.00;100338.66;4954452;28;20051;-68
2022/08/23 02:23:11;;;;;;;7.28;5.20;;;;;;;14.78;100.00;100342.22;4954667;28;20039;-68
2022/08/23 02:25:37;;;;;;;8.68;5.20;;;;;;;14.76;100.00;100334.41;4949637;28;20470;-68
2022/08/23 02:28:03;;;;;;;7.50;5.22;;;;;;;14.77;100.00;100336.09;4949446;28;20038;-69
2022/08/23 02:30:28;;;;;;;7.63;5.90;;;;;;;14.70;100.00;100329.53;4946390;29;20027;-68
2022/08/23 02:32:55;;;;;;;8.40;5.40;;;;;;;14.66;100.00;100322.78;4946508;28;20118;-68
2022/08/23 02:35:21;;;;;;;11.43;7.40;;;;;;;14.70;100.00;100340.09;4958155;28;20118;-68
2022/08/23 02:37:46;;;;;;;11.50;6.50;;;;;;;14.63;100.00;100328.25;4954273;28;20035;-68
2022/08/23 02:40:12;;;;;;;13.45;8.45;;;;;;;14.67;100.00;100335.03;4954292;28;20431;-68
2022/08/23 02:42:37;;;;;;;10.52;6.78;;;;;;;14.67;100.00;100344.75;4954119;28;20034;-68
2022/08/23 02:45:04;;;;;;;12.52;7.15;;;;;;;14.65;100.00;100330.81;4954250;28;20031;-68
2022/08/23 02:47:30;;;;;;;12.35;7.22;;;;;;;14.61;100.00;100324.88;4953943;28;20484;-68
2022/08/23 02:49:55;;;;;;;9.68;8.10;;;;;;;14.73;100.00;100339.91;4954029;28;20031;-68
2022/08/23 02:52:20;;;;;;;9.55;7.10;;;;;;;14.67;100.00;100335.03;4953915;28;20042;-67
2022/08/23 02:54:46;;;;;;;12.70;7.40;;;;;;;14.69;100.00;100338.44;4949053;28;20028;-68
2022/08/23 02:57:12;;;;;;;9.13;6.95;;;;;;;14.66;100.00;100343.94;4947252;28;20027;-68
2022/08/23 02:59:37;;;;;;;12.02;8.00;;;;;;;14.60;100.00;100322.34;4943501;28;20114;-67
2022/08/23 03:02:03;;;;;;;14.23;7.80;;;;;;;14.61;100.00;100334.59;4953638;29;20046;-68
2022/08/23 03:04:28;;;;;;;13.70;8.45;;;;;;;14.63;100.00;100330.06;4953431;28;20058;-68
2022/08/23 03:06:54;;;;;;;9.63;7.60;;;;;;;14.72;100.00;100337.38;4953751;28;20035;-68
2022/08/23 03:09:19;;;;;;;12.25;8.00;;;;;;;14.74;100.00;100335.44;4954059;28;20031;-68
2022/08/23 03:11:46;;;;;;;18.00;8.88;;;;;;;14.75;100.00;100337.16;4952885;28;20043;-68
2022/08/23 03:14:11;;;;;;;11.82;7.75;;;;;;;14.74;100.00;100338.09;4946993;29;20452;-68
2022/08/23 03:16:37;;;;;;;11.52;7.30;;;;;;;14.79;100.00;100346.59;4930837;29;20023;-68
2022/08/23 03:19:02;;;;;;;9.98;8.00;;;;;;;14.81;100.00;100347.31;4951967;28;20070;-68
2022/08/23 03:21:28;;;;;;;17.65;8.48;;;;;;;14.82;100.00;100349.00;4953571;28;20030;-68
2022/08/23 03:23:53;;;;;;;12.68;7.55;;;;;;;14.80;100.00;100350.94;4954070;28;20043;-68
2022/08/23 03:26:19;;;;;;;9.88;7.88;;;;;;;14.88;100.00;100353.03;4951090;28;20031;-68
2022/08/23 03:28:45;;;;;;;13.43;7.65;;;;;;;14.90;100.00;100362.56;4942807;28;20023;-68
2022/08/23 03:31:11;;;;;;;10.35;7.80;;;;;;;14.88;100.00;100359.16;4953553;28;20088;-67
2022/08/23 03:33:37;;;;;;;10.82;8.35;;;;;;;14.86;100.00;100358.44;4949397;29;20526;-67
2022/08/23 03:36:05;;;;;;;8.88;7.40;;;;;;;14.90;100.00;100357.28;4946346;28;20043;-68
2022/08/23 03:38:30;;;;;;;12.35;7.97;;;;;;;14.82;100.00;100341.94;4945330;28;20027;-68
2022/08/23 03:40:57;;;;;;;15.02;8.63;;;;;;;14.95;100.00;100354.31;4939602;28;20043;-68
2022/08/23 03:43:22;;;;;;;11.32;7.25;;;;;;;15.04;100.00;100369.56;4953511;28;20019;-68
2022/08/23 03:45:48;;;;;;;12.65;7.82;;;;;;;15.11;100.00;100366.38;4952383;29;20077;-68
2022/08/23 03:48:13;;;;;;;13.20;7.80;;;;;;;14.91;100.00;100324.56;4945549;28;20052;-68
2022/08/23 03:50:38;;;;;;;9.77;7.47;;;;;;;15.20;100.00;100365.75;4951480;28;20070;-68
2022/08/23 03:53:04;;;;;;;13.50;7.82;;;;;;;15.29;100.00;100370.41;4947273;28;20031;-68
2022/08/23 03:55:30;;;;;;;9.77;7.43;;;;;;;15.35;100.00;100375.25;4953416;28;20053;-68
2022/08/23 03:57:55;;;;;;;9.23;6.95;;;;;;;15.22;100.00;100352.38;4943889;28;20035;-68
2022/08/23 04:00:21;;;;;;;12.02;7.20;;;;;;;15.38;100.00;100379.47;4949763;28;20069;-68
2022/08/23 04:02:46;;;;;;;12.02;6.72;;;;;;;15.47;100.00;100393.88;4953146;29;20478;-68
2022/08/23 04:05:12;;;;;;;11.73;7.82;;;;;;;15.30;100.00;100377.38;4929319;28;20027;-68
2022/08/23 04:07:38;;;;;;;16.25;7.93;;;;;;;15.04;100.00;100319.28;4915357;28;20038;-68
2022/08/23 04:10:06;;;;;;;11.52;7.80;;;;;;;15.57;100.00;100400.25;4916079;28;20950;-68
2022/08/23 04:12:31;;;;;;;17.55;8.02;;;;;;;15.44;100.00;100372.91;4930574;29;20110;-67
2022/08/23 04:14:56;;;;;;;15.70;8.80;;;;;;;15.59;100.00;100414.22;4951808;29;20063;-68
2022/08/23 04:17:22;;;;;;;9.98;7.68;;;;;;;15.24;100.00;100353.97;4952397;28;20031;-68
2022/08/23 04:19:48;;;;;;;14.05;8.10;;;;;;;15.59;100.00;100411.59;4951926;28;20520;-68
2022/08/23 04:22:15;;;;;;;11.32;7.97;;;;;;;15.61;100.00;100402.59;4952770;28;20031;-68
2022/08/23 04:24:41;;;;;;;17.45;8.93;;;;;;;15.63;100.00;100405.97;4952413;28;20466;-68
2022/08/23 04:27:07;;;;;;;16.42;9.57;;;;;;;15.65;100.00;100409.34;4944479;28;20038;-68
2022/08/23 04:29:32;;;;;;;11.48;8.02;;;;;;;15.54;100.00;100381.94;4952817;28;20089;-68
2022/08/23 04:31:58;;;;;;;17.42;8.90;;;;;;;15.64;100.00;100396.22;4942580;28;20054;-68
2022/08/23 04:34:23;;;;;;;15.20;9.75;;;;;;;15.67;100.00;100398.66;4946168;28;20042;-68
2022/08/23 04:36:49;;;;;;;12.82;8.30;;;;;;;15.68;100.00;100405.66;4946019;28;20039;-68
2022/08/23 04:39:15;;;;;;;14.73;10.20;;;;;;;15.73;100.00;100411.47;4952666;28;20023;-68
2022/08/23 04:44:24;;;;;;;13.10;9.27;;;;;;;15.72;100.00;100410.59;4947372;28;20096;-68
2022/08/23 04:46:50;;;;;;;19.58;10.57;;;;;;;15.76;100.00;100416.53;4932800;28;20482;-68
2022/08/23 04:49:16;;;;;;;17.98;10.82;;;;;;;15.74;100.00;100419.31;4948823;28;20090;-68
2022/08/23 04:51:41;;;;;;;19.38;10.48;;;;;;;15.78;100.00;100419.94;4946849;28;20027;-68
2022/08/23 04:54:06;;;;;;;16.05;9.70;;;;;;;15.74;100.00;100419.31;4950441;28;20102;-68
2022/08/23 04:56:32;;;;;;;24.13;11.82;;;;;;;15.73;100.00;100412.31;4951249;28;20031;-68
2022/08/23 04:58:58;;;;;;;25.08;11.00;;;;;;;15.83;100.00;100423.09;4943549;28;20089;-68
2022/08/23 05:01:24;;;;;;;22.60;11.30;;;;;;;15.87;100.00;100431.66;4951548;28;20517;-68
2022/08/23 05:03:50;;;;;;;17.15;10.25;;;;;;;15.90;100.00;100434.94;4952495;28;20494;-68
2022/08/23 05:06:16;;;;;;;19.75;11.57;;;;;;;15.93;100.00;100429.44;4952291;28;20141;-68
2022/08/23 05:08:41;;;;;;;12.68;9.23;;;;;;;16.01;100.00;100443.00;4951614;29;20409;-68
2022/08/23 05:11:07;;;;;;;17.92;11.50;;;;;;;16.02;100.00;100427.94;4942494;28;20398;-68
2022/08/23 05:13:33;;;;;;;20.85;10.85;;;;;;;16.08;100.00;100431.00;4948993;28;20547;-68
2022/08/23 05:15:59;;;;;;;16.98;10.55;;;;;;;16.10;100.00;100434.38;4951759;28;20115;-68
2022/08/23 05:18:25;;;;;;;16.50;10.80;;;;;;;16.22;100.00;100443.25;4935402;28;20027;-68
2022/08/23 05:20:50;;;;;;;18.77;10.75;;;;;;;16.29;100.00;100445.31;4914136;28;20042;-68
2022/08/23 05:23:16;;;;;;;15.38;10.90;;;;;;;16.39;100.00;100456.13;4950988;28;20031;-67
2022/08/23 05:25:51;;;;;;;18.30;10.68;;;;;;;16.46;100.00;100453.88;4952008;28;20054;-68
2022/08/23 05:28:19;;;;;;;25.80;12.52;;;;;;;16.48;100.00;100444.81;4951931;28;20112;-68
2022/08/23 05:30:44;;;;;;;16.13;10.18;;;;;;;16.56;100.00;100450.44;4922972;28;20095;-68
2022/08/23 05:33:11;;;;;;;22.33;11.68;;;;;;;16.65;100.00;100454.22;4945562;28;20541;-67
2022/08/23 05:35:37;;;;;;;22.80;11.02;;;;;;;16.44;100.00;100410.69;4949226;28;20033;-67
2022/08/23 05:38:03;;;;;;;23.05;10.98;;;;;;;16.78;100.00;100452.34;4942955;28;20059;-67
2022/08/23 05:40:28;;;;;;;22.85;11.30;;;;;;;16.86;100.00;100463.25;4934109;28;20135;-67
2022/08/23 05:42:54;;;;;;;17.40;10.68;;;;;;;16.90;100.00;100454.06;4934042;28;20501;-68
2022/08/23 05:45:19;;;;;;;25.38;11.70;;;;;;;16.98;100.00;100470.28;4941674;28;20038;-68
2022/08/23 05:47:45;;;;;;;23.95;10.52;;;;;;;16.85;100.00;100440.31;4933263;28;20096;-68
2022/08/23 05:50:11;;;;;;;24.98;10.95;;;;;;;17.10;100.00;100463.19;4943210;28;20024;-67
2022/08/23 05:52:37;;;;;;;21.15;10.88;;;;;;;17.15;100.00;100464.53;4938907;28;20038;-67
2022/08/23 05:55:03;;;;;;;22.95;11.32;;;;;;;17.20;100.00;100465.00;4933744;28;20027;-67
2022/08/23 05:57:29;;;;;;;20.13;9.93;;;;;;;17.24;100.00;100463.81;4932329;28;20112;-68
2022/08/23 05:59:54;;;;;;;30.52;10.18;;;;;;;17.30;100.00;100462.53;4934846;28;20467;-67
2022/08/23 06:02:19;;;;;;;21.00;11.73;;;;;;;17.41;100.00;100469.63;4947210;28;20035;-68
2022/08/23 06:04:45;;;;;;;14.75;9.85;;;;;;;17.50;100.00;100479.56;4942191;28;20071;-67
2022/08/23 06:07:10;;;;;;;25.25;12.57;;;;;;;17.56;100.00;100477.31;4945973;29;20035;-67
2022/08/23 06:09:36;;;;;;;32.20;14.20;;;;;;;17.52;100.00;100457.22;4945338;28;20421;-67
2022/08/23 06:12:01;;;;;;;23.58;11.98;;;;;;;17.38;100.00;100420.25;4944110;28;20043;-68
2022/08/23 06:14:27;;;;;;;22.75;10.82;;;;;;;17.88;100.00;100480.94;4948028;28;20040;-68
2022/08/23 06:16:52;;;;;;;22.42;11.57;;;;;;;17.98;100.00;100481.06;4940993;28;20042;-67
2022/08/23 06:19:18;;;;;;;21.10;11.45;;;;;;;17.83;100.00;100442.41;4944073;28;20028;-68
2022/08/23 06:21:43;;;;;;;20.40;11.70;;;;;;;18.15;100.00;100483.22;4934182;28;20377;-67
2022/08/23 06:24:09;;;;;;;23.52;11.88;;;;;;;18.25;100.00;100494.00;4950954;28;20035;-67
2022/08/23 06:26:38;;;;;;;22.98;11.15;;;;;;;18.29;100.00;100490.09;4950228;28;20035;-68
2022/08/23 06:29:10;;;;;;;24.48;11.45;;;;;;;18.42;100.00;100497.94;4950721;28;20063;-68
2022/08/23 06:31:46;;;;;;;22.40;11.25;;;;;;;18.56;100.00;100503.00;4948012;28;20027;-68
2022/08/23 06:34:19;;;;;;;21.75;11.98;;;;;;;18.69;100.00;100493.06;4943507;28;20027;-67
2022/08/23 06:36:46;;;;;;;32.22;12.60;;;;;;;18.75;100.00;100488.06;4950708;28;20042;-67
2022/08/23 06:39:13;;;;;;;24.73;11.93;;;;;;;18.91;100.00;100497.44;4936757;28;20042;-67
2022/08/23 06:41:38;;;;;;;35.45;12.10;;;;;;;18.92;100.00;100488.50;4937189;28;20080;-68
2022/08/23 06:44:05;;;;;;;26.52;11.68;;;;;;;19.04;100.00;100498.97;4953741;28;20106;-67
2022/08/23 06:46:31;;;;;;;19.90;10.23;;;;;;;19.12;100.00;100498.31;4953680;28;20430;-67
2022/08/23 06:48:59;;;;;;;18.45;10.60;;;;;;;19.10;100.00;100476.28;4944757;28;20051;-67
2022/08/23 06:51:28;;;;;;;18.98;10.50;;;;;;;19.24;100.00;100494.59;4931500;28;20028;-67
2022/08/23 06:53:55;;;;;;;21.83;11.50;;;;;;;19.28;100.00;100486.22;4953562;28;20043;-67
2022/08/23 06:56:23;;;;;;;21.20;10.70;;;;;;;19.47;100.00;100501.53;4950143;28;20027;-68
2022/08/23 06:58:48;;;;;;;29.25;11.15;;;;;;;19.64;100.00;100492.94;4942822;28;20032;-68
2022/08/23 07:01:14;;;;;;;19.98;11.02;;;;;;;19.84;100.00;100493.84;4948260;28;20034;-68
2022/08/23 07:03:39;;;;;;;27.60;10.50;;;;;;;19.92;100.00;100475.38;4937462;28;20031;-68
2022/08/23 07:06:06;;;;;;;25.92;9.70;;;;;;;20.23;100.00;100493.03;4953347;28;20398;-68
2022/08/23 07:08:32;;;;;;;18.65;10.05;;;;;;;20.38;100.00;100494.38;4953247;28;20027;-68
2022/08/23 07:10:57;;;;;;;20.13;8.43;;;;;;;20.61;100.00;100500.34;4964819;28;20035;-68
2022/08/23 07:13:22;;;;;;;25.38;8.88;;;;;;;20.48;100.00;100446.31;4953736;28;20105;-68
2022/08/23 07:15:48;;;;;;;29.55;8.52;;;;;;;20.98;100.00;100489.81;4950721;28;20035;-68
2022/08/23 07:18:13;;;;;;;19.00;7.43;;;;;;;21.22;100.00;100503.63;4941765;28;20033;-68
2022/08/23 07:20:39;;;;;;;19.30;7.63;;;;;;;21.37;100.00;100504.84;4948943;28;20063;-68
2022/08/23 07:23:04;;;;;;;19.58;7.35;;;;;;;21.54;100.00;100510.44;4942420;28;20038;-68
2022/08/23 07:25:31;;;;;;;23.75;6.97;;;;;;;21.56;100.00;100501.31;4950781;28;20078;-68
2022/08/23 07:27:57;;;;;;;18.95;8.20;;;;;;;21.54;100.00;100489.88;4953222;28;20432;-68
2022/08/23 07:30:23;;;;;;;21.83;7.40;;;;;;;21.68;100.00;100512.66;4950587;28;20035;-68
2022/08/23 07:32:49;;;;;;;26.33;7.32;;;;;;;21.67;100.00;100506.47;4946888;29;20028;-68
2022/08/23 07:35:14;;;;;;;14.52;6.88;;;;;;;21.64;100.00;100506.75;4947489;28;20085;-68
2022/08/23 07:37:41;;;;;;;16.48;6.60;;;;;;;21.84;100.00;100519.06;4935910;28;20039;-68
2022/08/23 07:40:07;;;;;;;25.58;6.78;;;;;;;21.81;100.00;100507.81;4935181;28;20114;-67
2022/08/23 07:42:32;;;;;;;12.68;6.10;;;;;;;21.94;100.00;100528.94;4946411;28;20023;-67
2022/08/23 07:44:58;;;;;;;24.83;6.45;;;;;;;21.94;100.00;100519.06;4951056;28;20085;-68
2022/08/23 07:47:23;;;;;;;15.93;6.63;;;;;;;21.84;100.00;100507.53;4950872;28;20118;-68
2022/08/23 07:49:49;;;;;;;15.15;6.75;;;;;;;21.84;100.00;100519.06;4951158;28;20035;-69
2022/08/23 07:52:15;;;;;;;15.73;6.40;;;;;;;21.86;100.00;100529.66;4952277;29;20430;-68
2022/08/23 07:54:40;;;;;;;15.85;7.25;;;;;;;21.82;100.00;100536.28;4943873;28;20110;-67
2022/08/23 07:57:06;;;;;;;16.08;6.88;;;;;;;21.81;100.00;100531.91;4952896;29;20390;-68
2022/08/23 07:59:32;;;;;;;19.02;7.03;;;;;;;21.81;100.00;100546.13;4941581;28;20489;-68
2022/08/23 08:01:57;;;;;;;15.88;5.60;;;;;;;21.82;100.00;100538.94;4947476;28;20126;-68
2022/08/23 08:04:22;;;;;;;16.65;7.45;;;;;;;21.88;100.00;100554.41;4952076;28;20511;-68
2022/08/23 08:06:49;;;;;;;15.70;6.28;;;;;;;21.94;100.00;100553.84;4949285;28;20035;-68
2022/08/23 08:09:15;;;;;;;23.83;6.13;;;;;;;22.01;100.00;100554.13;4952637;28;20031;-67
2022/08/23 08:11:44;;;;;;;13.57;5.90;;;;;;;22.05;100.00;100548.34;4943667;28;20024;-68
2022/08/23 08:14:10;;;;;;;14.18;6.53;;;;;;;21.97;100.00;100529.47;4933533;28;20047;-68
2022/08/23 08:16:45;;;;;;;11.90;5.32;;;;;;;22.16;100.00;100556.19;4941914;28;20032;-68
2022/08/23 08:19:14;;;;;;;11.63;5.53;;;;;;;22.19;100.00;100557.72;4924056;28;20031;-68
2022/08/23 08:21:40;;;;;;;17.20;5.18;;;;;;;22.26;100.00;100559.69;4918864;28;20054;-68
2022/08/23 08:24:07;;;;;;;15.50;5.43;;;;;;;22.33;100.00;100558.09;4942552;29;20055;-68
2022/08/23 08:26:33;;;;;;;16.35;5.53;;;;;;;22.35;100.00;100549.91;4936222;29;20027;-68
2022/08/23 08:28:58;;;;;;;22.13;5.55;;;;;;;22.42;100.00;100545.63;4933249;28;20034;-67
2022/08/23 08:31:24;;;;;;;11.07;5.10;;;;;;;22.46;100.00;100547.03;4949685;28;20082;-68
2022/08/23 08:33:49;;;;;;;14.32;5.40;;;;;;;22.53;100.00;100549.94;4966946;28;20035;-68
2022/08/23 08:36:48;;;;;;;13.15;5.43;;;;;;;22.63;100.00;100554.25;4933518;28;20028;-68
2022/08/23 08:39:17;;;;;;;14.95;5.40;;;;;;;22.66;100.00;100553.09;4946129;28;20043;-67
2022/08/23 08:41:47;;;;;;;8.45;4.85;;;;;;;22.74;100.00;100550.56;4936029;28;20085;-69
2022/08/23 08:44:22;;;;;;;9.70;4.95;;;;;;;22.84;100.00;100559.38;5007310;28;20088;-67
2022/08/23 08:46:50;;;;;;;11.95;5.63;;;;;;;22.93;100.00;100558.47;4952299;28;20071;-67
2022/08/23 08:49:36;;;;;;;16.20;5.35;;;;;;;22.99;100.00;100557.84;4952150;28;20105;-68
2022/08/23 08:52:10;;;;;;;11.80;5.22;;;;;;;23.10;100.00;100563.00;5015824;28;20142;-67
2022/08/23 08:54:36;;;;;;;10.82;5.35;;;;;;;23.17;100.00;100565.91;4948421;28;20031;-67
2022/08/23 08:57:02;;;;;;;18.42;5.32;;;;;;;23.20;100.00;100563.75;4921734;28;20110;-68
2022/08/23 08:59:46;;;;;;;7.95;3.83;;;;;;;23.29;100.00;100564.66;4936154;28;20493;-68
2022/08/23 09:02:16;;;;;;;9.77;4.00;;;;;;;23.33;100.00;100569.56;4933756;28;20028;-69
2022/08/23 09:04:41;;;;;;;9.43;4.65;;;;;;;23.39;100.00;100568.09;4934903;29;20085;-68
2022/08/23 09:07:14;;;;;;;12.77;3.72;;;;;;;23.39;100.00;100563.56;4937270;28;20054;-68
2022/08/23 09:10:01;;;;;;;8.55;4.75;;;;;;;23.53;100.00;100558.69;4917367;28;20054;-68
2022/08/23 09:12:56;;;;;;;11.45;4.55;;;;;;;23.62;100.00;100561.28;4937096;28;20047;-68
2022/08/23 09:15:22;;;;;;;11.10;4.30;;;;;;;23.70;100.00;100563.16;4935226;28;20878;-68
2022/08/23 09:17:55;;;;;;;7.97;2.72;;;;;;;23.81;100.00;100557.56;4931667;28;20046;-68
2022/08/23 09:20:23;;;;;;;8.75;3.67;;;;;;;23.88;100.00;100558.59;4936487;28;20047;-68
2022/08/23 09:22:58;;;;;;;8.82;3.35;;;;;;;23.88;100.00;100550.56;4937712;28;20110;-68
2022/08/23 09:25:23;;;;;;;7.55;3.70;;;;;;;23.68;100.00;100522.25;4923694;29;20027;-69
2022/08/23 09:27:49;;;;;;;11.35;4.25;;;;;;;24.03;100.00;100556.19;4934198;28;20041;-68
2022/08/23 09:30:16;;;;;;;13.38;4.25;;;;;;;24.14;100.00;100562.13;4928339;28;20031;-68
2022/08/23 09:32:44;;;;;;;15.18;4.28;;;;;;;24.14;100.00;100561.28;4935650;28;20034;-67
2022/08/23 09:35:23;;;;;;;6.00;3.20;;;;;;;24.16;100.00;100562.84;4936622;28;20035;-67
2022/08/23 09:37:51;;;;;;;10.70;3.80;;;;;;;24.29;100.00;100565.94;4935465;28;20067;-67
2022/08/23 09:40:33;;;;;;;10.98;3.47;;;;;;;24.42;100.00;100565.47;4940502;28;20070;-67
2022/08/23 09:43:14;;;;;;;12.23;4.10;;;;;;;24.47;100.00;100559.63;5006738;28;20046;-67
2022/08/23 09:45:48;;;;;;;8.85;3.10;;;;;;;24.52;100.00;100559.97;4951536;29;20023;-67
2022/08/23 09:48:14;;;;;;;;;;;;;;;24.56;100.00;100558.63;4948440;28;20059;-67
2022/08/23 09:50:53;;;;;;;4.60;2.63;;;;;;;24.66;100.00;100562.03;4970227;28;19967;-67
2022/08/23 09:53:23;;;;;;;9.98;3.20;;;;;;;24.69;100.00;100553.63;4940528;28;20027;-67
2022/08/23 09:55:56;;;;;;;10.15;3.53;;;;;;;24.80;100.00;100556.03;4939241;28;20031;-68
2022/08/23 09:58:35;;;;;;;5.15;3.08;;;;;;;24.94;100.00;100562.63;4919955;28;20024;-67
2022/08/23 10:01:20;;;;;;;7.22;3.60;;;;;;;25.08;100.00;100549.38;4932784;28;20071;-67
2022/08/23 10:03:47;;;;;;;7.43;3.38;;;;;;;25.08;100.00;100549.38;4932696;28;20050;-68
2022/08/23 10:06:28;;;;;;;8.57;3.47;;;;;;;25.20;98.91;100548.06;4934814;29;20050;-67
2022/08/23 10:09:00;;;;;;;8.65;4.13;;;;;;;25.28;100.00;100550.72;4948020;28;20031;-67
2022/08/23 10:11:28;;;;;;;7.45;3.00;;;;;;;25.12;100.00;100496.06;4947977;28;20377;-67
2022/08/23 10:13:54;;;;;;;8.48;3.10;;;;;;;25.60;97.25;100552.59;4965604;28;20043;-67
2022/08/23 10:16:50;;;;;;;8.32;3.08;;;;;;;25.70;100.00;100534.44;4939943;28;20143;-66
2022/08/23 10:19:37;;;;;;;12.70;2.97;;;;;;;26.01;100.00;100542.59;4938147;28;20466;-67
2022/08/23 10:22:20;;;;;;;9.18;3.25;;;;;;;26.22;95.27;100540.22;4934615;29;20039;-67
2022/08/23 10:24:47;;;;;;;9.52;3.42;;;;;;;26.31;92.20;100544.56;4936403;28;20039;-67
2022/08/23 10:30:13;;;;;;;8.10;2.97;;;;;;;26.43;91.38;100526.97;4947919;28;20046;-67
2022/08/23 10:32:57;;;;;;;12.32;2.90;;;;;;;26.60;89.50;100548.47;4954100;29;20036;-66
2022/08/23 10:35:29;;;;;;;7.85;2.85;;;;;;;26.67;91.44;100544.03;4940608;28;20031;-67
2022/08/23 10:38:06;;;;;;;15.15;3.10;;;;;;;26.72;88.01;100538.97;4944544;28;20104;-67
2022/08/23 10:40:53;;;;;;;8.30;2.97;;;;;;;26.24;92.79;100484.28;4946177;28;20031;-67
2022/08/23 10:43:36;;;;;;;6.00;2.42;;;;;;;26.27;92.83;100500.09;4963161;28;20024;-67
2022/08/23 10:46:02;;;;;;;7.47;2.83;;;;;;;26.56;90.24;100533.66;4951016;28;20060;-67
2022/08/23 10:48:31;;;;;;;10.35;2.58;;;;;;;26.69;88.80;100536.63;4947910;28;20028;-67
2022/08/23 10:51:05;;;;;;;8.02;2.60;;;;;;;26.62;89.13;100535.66;5017584;28;20027;-67
2022/08/23 10:53:38;;;;;;;7.10;2.35;;;;;;;26.69;89.02;100529.38;4939311;29;20145;-67
2022/08/23 10:56:06;;;;;;;10.25;2.55;;;;;;;26.74;84.99;100537.75;4943136;28;20031;-67
2022/08/23 10:58:38;;;;;;;6.60;2.55;;;;;;;26.37;89.29;100492.63;4943731;28;20513;-68
2022/08/23 11:01:05;;;;;;;6.35;2.42;;;;;;;26.55;84.71;100529.28;4922770;28;20031;-67
2022/08/23 11:03:34;;;;;;;5.53;2.58;;;;;;;26.70;83.93;100519.44;4938483;28;20058;-67
2022/08/23 11:06:33;;;;;;;4.50;1.83;;;;;;;26.98;87.19;100531.41;4936453;28;20031;-67
2022/08/23 11:09:05;;;;;;;7.65;2.10;;;;;;;27.32;89.14;100529.09;4952414;28;20023;-67
2022/08/23 11:11:38;;;;;;;5.05;1.70;;;;;;;27.53;82.21;100523.06;4953180;29;20481;-67
2022/08/23 11:14:07;;;;;;;5.65;2.20;;;;;;;27.67;82.10;100532.19;4948695;28;20142;-67
2022/08/23 11:16:33;;;;;;;6.07;2.20;;;;;;;27.55;78.46;100520.16;4943654;28;20029;-67
2022/08/23 11:18:59;;;;;;;5.03;1.85;;;;;;;27.73;81.79;100512.56;4939816;28;20390;-68
2022/08/23 11:21:24;;;;;;;4.45;2.20;;;;;;;28.09;85.02;100521.63;4937011;28;20024;-68
2022/08/23 11:23:58;;;;;;;4.55;2.03;;;;;;;28.27;77.66;100524.78;4945062;28;20544;-68
2022/08/23 11:26:26;;;;;;;;;;;;;;;28.50;83.73;100527.38;4951242;28;20036;-68
2022/08/23 11:29:23;;;;;;;4.28;1.65;;;;;;;28.81;81.55;100521.72;4944817;28;20412;-67
2022/08/23 11:31:58;;;;;;;4.57;1.70;;;;;;;29.18;78.66;100524.19;4951565;28;20285;-68